Sportmarken im Sale: Finde Deine besten Schnäppchen bei Intersport
Beim Sport geht nichts über die richtige Ausrüstung. Gerade jetzt hast Du bei Intersport die Möglichkeit, hochwertige Sportbekleidung zu unschlagbaren Preisen zu ergattern. Besonders hervorzuheben im aktuellen Sale ist die Marke Icepeak, die für ihre langlebigen und funktionellen Produkte bekannt ist. Hier findest Du eine vielfältige Auswahl an Jacken, Hosen und vielen weiteren Kleidungsstücken, die Deinem Outdoor-Abenteuer oder Deiner Wintersport-Saison den perfekten Rahmen geben.
Jacken und Mäntel
Mit der breiten Palette an Jacken von Icepeak bist Du bestens ausgerüstet. Ob es die Wanderjacken sind, die Dir beim nächsten Hiking-Trip zuverlässigen Schutz bieten, oder die robusten Skijacken, die Dich bei jeder Abfahrt warm und trocken halten. Die Jacken überzeugen durch ihre wasser- und winddichten Materialien und durchdachten Details wie verstellbare Kapuzen und zahlreiche Taschen.
Hosen und Outdoorhosen
Auch bei den Hosen zeigt Icepeak sein ganzes Können. Die Outdoorhosen schützen Dich vor Wind und Wetter, während sie gleichzeitig hohen Tragekomfort bieten. Mit atmungsaktiven Stoffen und flexiblen Schnitten genießt Du volle Bewegungsfreiheit. Die Skihosen dagegen sind perfekt isoliert und sorgen dafür, dass Du selbst bei niedrigsten Temperaturen warm bleibst.
Rollis und Westen
An kalten Tagen sind Rollis und Westen von Icepeak die perfekte Ergänzung zu Deiner Outdoorgarderobe. Rollis aus funktionellen Materialien halten dich warm und leiten Feuchtigkeit zuverlässig ab. Westen bieten Dir die nötige Bewegungsfreiheit und zusätzliche Wärme dort, wo Du sie am meisten benötigst. Diese funktionellen Mid-Layer sind ideal für vielfältige Einsatzbereiche und lassen sich problemlos in Dein Schichtsystem integrieren.
Röcke
Nicht nur funktional, sondern auch stylisch sind die Röcke von Icepeak. Sie bieten die perfekte Kombination aus Komfort und Modestil für Deine Freizeitaktivitäten im Freien. Mit wasserabweisenden Stoffen und bequemen Schnitten machen diese Röcke jede Bewegung mit.
Im Intersport Sale findest Du eine beeindruckende Auswahl an Icepeak Produkten – egal, ob Du eine neue Jacke, eine robuste Outdoorhose oder eine funktionelle Weste suchst. Mit den stark reduzierten Preisen erhältst Du Spitzenqualität zum Schnäppchenpreis. Greife zu und rüste Dich optimal für Deine nächsten Abenteuer aus!
Entdecke jetzt die Icepeak Kollektion im Intersport Sale und sichere Dir Deine Favoriten, bevor sie vergriffen sind!
%2CMatte(FFFFFF)&width=300&height=300&source=marktplatz%2Fproduktiv%2FM42%2F954911544I%2F954911544I_938_BILD01_20260220.jpg)
%2CMatte(FFFFFF)&width=100&height=100&source=marktplatz%2Fproduktiv%2FM42%2F954911544I%2F954911544I_938_BILD01_20260220.jpg)
%2CMatte(FFFFFF)&width=100&height=100&source=marktplatz%2Fproduktiv%2FM42%2F954911544I%2F954911544I_633_BILD01_20260220.jpg)
%2CMatte(FFFFFF)&width=100&height=100&source=marktplatz%2Fproduktiv%2FM42%2F954911544I%2F954911544I_628_BILD01_20260220.jpg)
%2CMatte(FFFFFF)&width=100&height=100&source=marktplatz%2Fproduktiv%2FM42%2F954911544I%2F954911544I_022_BILD01_20260220.jpg)
%2CMatte(FFFFFF)&width=100&height=100&source=marktplatz%2Fproduktiv%2FM42%2F954911544I%2F954911544I_310_BILD01_20260220.jpg)
%2CMatte(FFFFFF)&width=100&height=100&source=marktplatz%2Fproduktiv%2FM42%2F954911544I%2F954911544I_513_BILD01_20260220.jpg)
%2CMatte(FFFFFF)&width=100&height=100&source=marktplatz%2Fproduktiv%2FM42%2F954911544I%2F954911544I_276_BILD01_20260220.jpg)
%2CMatte(FFFFFF)&width=300&height=300&source=marktplatz%2Fproduktiv%2FM42%2F654060542IO%2F654060542IO_990_BILD01_20240930.jpg)
%2CMatte(FFFFFF)&width=100&height=100&source=marktplatz%2Fproduktiv%2FM42%2F654060542IO%2F654060542IO_990_BILD01_20240930.jpg)
%2CMatte(FFFFFF)&width=100&height=100&source=marktplatz%2Fproduktiv%2FM42%2F654060542IO%2F654060542IO_290_BILD01_20240930.jpg)
%2CMatte(FFFFFF)&width=100&height=100&source=marktplatz%2Fproduktiv%2FM42%2F654060542IO%2F654060542IO_390_BILD01_20240930.jpg)
%2CMatte(FFFFFF)&width=300&height=300&source=marktplatz%2Fproduktiv%2FM42%2F954874664I%2F954874664I_310_BILD01_20260220.jpg)
%2CMatte(FFFFFF)&width=100&height=100&source=marktplatz%2Fproduktiv%2FM42%2F954874664I%2F954874664I_310_BILD01_20260220.jpg)
%2CMatte(FFFFFF)&width=100&height=100&source=marktplatz%2Fproduktiv%2FM42%2F954874664I%2F954874664I_276_BILD01_20260220.jpg)
%2CMatte(FFFFFF)&width=100&height=100&source=marktplatz%2Fproduktiv%2FM42%2F954874664I%2F954874664I_022_BILD01_20260220.jpg)
%2CMatte(FFFFFF)&width=100&height=100&source=marktplatz%2Fproduktiv%2FM42%2F954874664I%2F954874664I_711_BILD01_20260220.jpg)
%2CMatte(FFFFFF)&width=100&height=100&source=marktplatz%2Fproduktiv%2FM42%2F954874664I%2F954874664I_633_BILD01_20260220.jpg)
%2CMatte(FFFFFF)&width=100&height=100&source=marktplatz%2Fproduktiv%2FM42%2F954874664I%2F954874664I_381_BILD01_20260220.jpg)
%2CMatte(FFFFFF)&width=300&height=300&source=marktplatz%2Fproduktiv%2FM42%2F854954638I1%2F854954638I1_014_BILD01_20250917.jpg)
%2CMatte(FFFFFF)&width=100&height=100&source=marktplatz%2Fproduktiv%2FM42%2F854954638I1%2F854954638I1_014_BILD01_20250917.jpg)
%2CMatte(FFFFFF)&width=100&height=100&source=marktplatz%2Fproduktiv%2FM42%2F854954638I1%2F854954638I1_810_BILD01_20250917.jpg)
%2CMatte(FFFFFF)&width=100&height=100&source=marktplatz%2Fproduktiv%2FM42%2F854954638I1%2F854954638I1_050_BILD01_20250917.jpg)
%2CMatte(FFFFFF)&width=100&height=100&source=marktplatz%2Fproduktiv%2FM42%2F854954638I1%2F854954638I1_623_BILD01_20250917.jpg)
%2CMatte(FFFFFF)&width=100&height=100&source=marktplatz%2Fproduktiv%2FM42%2F854954638I1%2F854954638I1_690_BILD01_20250917.jpg)
%2CMatte(FFFFFF)&width=100&height=100&source=marktplatz%2Fproduktiv%2FM42%2F854954638I1%2F854954638I1_390_BILD01_20250917.jpg)
%2CMatte(FFFFFF)&width=100&height=100&source=marktplatz%2Fproduktiv%2FM42%2F854954638I1%2F854954638I1_990_BILD01_20250917.jpg)
%2CMatte(FFFFFF)&width=100&height=100&source=marktplatz%2Fproduktiv%2FM42%2F854954638I1%2F854954638I1_301_BILD01_20250917.jpg)
%2CMatte(FFFFFF)&width=100&height=100&source=marktplatz%2Fproduktiv%2FM42%2F854954638I1%2F854954638I1_610_BILD01_20250917.jpg)
%2CMatte(FFFFFF)&width=300&height=300&source=marktplatz%2Fproduktiv%2FM42%2F751897694IO%2F751897694IO_990_BILD01_20250326.jpg)
%2CMatte(FFFFFF)&width=100&height=100&source=marktplatz%2Fproduktiv%2FM42%2F751897694IO%2F751897694IO_990_BILD01_20250326.jpg)
%2CMatte(FFFFFF)&width=100&height=100&source=marktplatz%2Fproduktiv%2FM42%2F751897694IO%2F751897694IO_390_BILD01_20250326.jpg)
%2CMatte(FFFFFF)&width=300&height=300&source=marktplatz%2Fproduktiv%2FM42%2F954863490I%2F954863490I_032_BILD01_20260225.jpg)
%2CMatte(FFFFFF)&width=100&height=100&source=marktplatz%2Fproduktiv%2FM42%2F954863490I%2F954863490I_032_BILD01_20260225.jpg)
%2CMatte(FFFFFF)&width=100&height=100&source=marktplatz%2Fproduktiv%2FM42%2F954863490I%2F954863490I_510_BILD01_20260217.jpg)
%2CMatte(FFFFFF)&width=100&height=100&source=marktplatz%2Fproduktiv%2FM42%2F954863490I%2F954863490I_390_BILD01_20260225.jpg)
%2CMatte(FFFFFF)&width=100&height=100&source=marktplatz%2Fproduktiv%2FM42%2F954863490I%2F954863490I_633_BILD01_20260217.jpg)
%2CMatte(FFFFFF)&width=100&height=100&source=marktplatz%2Fproduktiv%2FM42%2F954863490I%2F954863490I_513_BILD01_20260225.jpg)
%2CMatte(FFFFFF)&width=300&height=300&source=marktplatz%2Fproduktiv%2FM42%2F954810582I%2F954810582I_390_BILD01_20260220.jpg)
%2CMatte(FFFFFF)&width=100&height=100&source=marktplatz%2Fproduktiv%2FM42%2F954810582I%2F954810582I_390_BILD01_20260220.jpg)
%2CMatte(FFFFFF)&width=100&height=100&source=marktplatz%2Fproduktiv%2FM42%2F954810582I%2F954810582I_310_BILD01_20260220.jpg)
%2CMatte(FFFFFF)&width=100&height=100&source=marktplatz%2Fproduktiv%2FM42%2F954810582I%2F954810582I_628_BILD01_20260220.jpg)
%2CMatte(FFFFFF)&width=100&height=100&source=marktplatz%2Fproduktiv%2FM42%2F954810582I%2F954810582I_711_BILD01_20260217.jpg)
%2CMatte(FFFFFF)&width=300&height=300&source=marktplatz%2Fproduktiv%2FM42%2F954756626I%2F954756626I_310_BILD01_20260220.jpg)
%2CMatte(FFFFFF)&width=100&height=100&source=marktplatz%2Fproduktiv%2FM42%2F954756626I%2F954756626I_310_BILD01_20260220.jpg)
%2CMatte(FFFFFF)&width=100&height=100&source=marktplatz%2Fproduktiv%2FM42%2F954756626I%2F954756626I_032_BILD01_20260220.jpg)
%2CMatte(FFFFFF)&width=100&height=100&source=marktplatz%2Fproduktiv%2FM42%2F954756626I%2F954756626I_390_BILD01_20260220.jpg)
%2CMatte(FFFFFF)&width=100&height=100&source=marktplatz%2Fproduktiv%2FM42%2F954756626I%2F954756626I_628_BILD01_20260220.jpg)
%2CMatte(FFFFFF)&width=100&height=100&source=marktplatz%2Fproduktiv%2FM42%2F954756626I%2F954756626I_711_BILD01_20260220.jpg)
%2CMatte(FFFFFF)&width=300&height=300&source=marktplatz%2Fproduktiv%2FM42%2F957911544I%2F957911544I_584_BILD01_20260217.jpg)
%2CMatte(FFFFFF)&width=100&height=100&source=marktplatz%2Fproduktiv%2FM42%2F957911544I%2F957911544I_584_BILD01_20260217.jpg)
%2CMatte(FFFFFF)&width=100&height=100&source=marktplatz%2Fproduktiv%2FM42%2F957911544I%2F957911544I_270_BILD01_20221119.jpg)
%2CMatte(FFFFFF)&width=100&height=100&source=marktplatz%2Fproduktiv%2FM42%2F957911544I%2F957911544I_939_BILD01_20260217.jpg)
%2CMatte(FFFFFF)&width=100&height=100&source=marktplatz%2Fproduktiv%2FM42%2F957911544I%2F957911544I_320_BILD01_20260220.jpg)
%2CMatte(FFFFFF)&width=100&height=100&source=marktplatz%2Fproduktiv%2FM42%2F957911544I%2F957911544I_290_BILD01_20260217.jpg)
%2CMatte(FFFFFF)&width=100&height=100&source=marktplatz%2Fproduktiv%2FM42%2F957911544I%2F957911544I_660_BILD01_20260220.jpg)
%2CMatte(FFFFFF)&width=100&height=100&source=marktplatz%2Fproduktiv%2FM42%2F957911544I%2F957911544I_390_BILD01_20260220.jpg)
%2CMatte(FFFFFF)&width=100&height=100&source=marktplatz%2Fproduktiv%2FM42%2F957911544I%2F957911544I_513_BILD01_20260220.jpg)
%2CMatte(FFFFFF)&width=100&height=100&source=marktplatz%2Fproduktiv%2FM42%2F957911544I%2F957911544I_276_BILD01_20260217.jpg)
%2CMatte(FFFFFF)&width=300&height=300&source=marktplatz%2Fproduktiv%2FM42%2F754970682IO%2F754970682IO_390_BILD01_20250326.jpg)
%2CMatte(FFFFFF)&width=100&height=100&source=marktplatz%2Fproduktiv%2FM42%2F754970682IO%2F754970682IO_390_BILD01_20250326.jpg)
%2CMatte(FFFFFF)&width=100&height=100&source=marktplatz%2Fproduktiv%2FM42%2F754970682IO%2F754970682IO_990_BILD01_20250326.jpg)
%2CMatte(FFFFFF)&width=300&height=300&source=marktplatz%2Fproduktiv%2FM42%2F853083563IX%2F853083563IX_390_BILD01_20250910.jpg)
%2CMatte(FFFFFF)&width=100&height=100&source=marktplatz%2Fproduktiv%2FM42%2F853083563IX%2F853083563IX_390_BILD01_20250910.jpg)
%2CMatte(FFFFFF)&width=100&height=100&source=marktplatz%2Fproduktiv%2FM42%2F853083563IX%2F853083563IX_567_BILD01_20250910.jpg)
%2CMatte(FFFFFF)&width=100&height=100&source=marktplatz%2Fproduktiv%2FM42%2F853083563IX%2F853083563IX_990_BILD01_20250910.jpg)
%2CMatte(FFFFFF)&width=100&height=100&source=marktplatz%2Fproduktiv%2FM42%2F853083563IX%2F853083563IX_590_BILD01_20250910.jpg)
%2CMatte(FFFFFF)&width=100&height=100&source=marktplatz%2Fproduktiv%2FM42%2F853083563IX%2F853083563IX_690_BILD01_20250910.jpg)
%2CMatte(FFFFFF)&width=300&height=300&source=marktplatz%2Fproduktiv%2FM42%2F853032553I%2F853032553I_348_BILD01_20250822.jpg)
%2CMatte(FFFFFF)&width=100&height=100&source=marktplatz%2Fproduktiv%2FM42%2F853032553I%2F853032553I_348_BILD01_20250822.jpg)
%2CMatte(FFFFFF)&width=100&height=100&source=marktplatz%2Fproduktiv%2FM42%2F853032553I%2F853032553I_390_BILD01_20250822.jpg)
%2CMatte(FFFFFF)&width=100&height=100&source=marktplatz%2Fproduktiv%2FM42%2F853032553I%2F853032553I_720_BILD01_20250822.jpg)
%2CMatte(FFFFFF)&width=100&height=100&source=marktplatz%2Fproduktiv%2FM42%2F853032553I%2F853032553I_560_BILD01_20250822.jpg)
%2CMatte(FFFFFF)&width=300&height=300&source=marktplatz%2Fproduktiv%2FM42%2F853008593I%2F853008593I_990_BILD01_20250822.jpg)
%2CMatte(FFFFFF)&width=100&height=100&source=marktplatz%2Fproduktiv%2FM42%2F853008593I%2F853008593I_990_BILD01_20250822.jpg)
%2CMatte(FFFFFF)&width=100&height=100&source=marktplatz%2Fproduktiv%2FM42%2F853008593I%2F853008593I_690_BILD01_20250822.jpg)
%2CMatte(FFFFFF)&width=300&height=300&source=marktplatz%2Fproduktiv%2FM42%2F850034553I%2F850034553I_990_BILD01_20250822.jpg)
%2CMatte(FFFFFF)&width=100&height=100&source=marktplatz%2Fproduktiv%2FM42%2F850034553I%2F850034553I_990_BILD01_20250822.jpg)
%2CMatte(FFFFFF)&width=100&height=100&source=marktplatz%2Fproduktiv%2FM42%2F850034553I%2F850034553I_332_BILD01_20250822.jpg)
%2CMatte(FFFFFF)&width=100&height=100&source=marktplatz%2Fproduktiv%2FM42%2F850034553I%2F850034553I_390_BILD01_20250822.jpg)
%2CMatte(FFFFFF)&width=100&height=100&source=marktplatz%2Fproduktiv%2FM42%2F850034553I%2F850034553I_692_BILD01_20250822.jpg)
%2CMatte(FFFFFF)&width=100&height=100&source=marktplatz%2Fproduktiv%2FM42%2F850034553I%2F850034553I_623_BILD01_20250822.jpg)
%2CMatte(FFFFFF)&width=100&height=100&source=marktplatz%2Fproduktiv%2FM42%2F850034553I%2F850034553I_610_BILD01_20250822.jpg)
%2CMatte(FFFFFF)&width=100&height=100&source=marktplatz%2Fproduktiv%2FM42%2F850034553I%2F850034553I_625_BILD01_20250822.jpg)
%2CMatte(FFFFFF)&width=300&height=300&source=marktplatz%2Fproduktiv%2FM42%2F654067543IO%2F654067543IO_990_BILD01_20240930.jpg)
%2CMatte(FFFFFF)&width=100&height=100&source=marktplatz%2Fproduktiv%2FM42%2F654067543IO%2F654067543IO_990_BILD01_20240930.jpg)
%2CMatte(FFFFFF)&width=100&height=100&source=marktplatz%2Fproduktiv%2FM42%2F654067543IO%2F654067543IO_290_BILD01_20240930.jpg)
%2CMatte(FFFFFF)&width=300&height=300&source=marktplatz%2Fproduktiv%2FM42%2F755995544IO%2F755995544IO_980_BILD01_20250326.jpg)
%2CMatte(FFFFFF)&width=100&height=100&source=marktplatz%2Fproduktiv%2FM42%2F755995544IO%2F755995544IO_980_BILD01_20250326.jpg)
%2CMatte(FFFFFF)&width=100&height=100&source=marktplatz%2Fproduktiv%2FM42%2F755995544IO%2F755995544IO_990_BILD01_20250326.jpg)
%2CMatte(FFFFFF)&width=300&height=300&source=marktplatz%2Fproduktiv%2FM42%2F657060542IO%2F657060542IO_990_BILD01_20240930.jpg)
%2CMatte(FFFFFF)&width=100&height=100&source=marktplatz%2Fproduktiv%2FM42%2F657060542IO%2F657060542IO_990_BILD01_20240930.jpg)
%2CMatte(FFFFFF)&width=100&height=100&source=marktplatz%2Fproduktiv%2FM42%2F657060542IO%2F657060542IO_290_BILD01_20240930.jpg)
%2CMatte(FFFFFF)&width=300&height=300&source=marktplatz%2Fproduktiv%2FM42%2F856120505I%2F856120505I_390_BILD01_20250822.jpg)
%2CMatte(FFFFFF)&width=300&height=300&source=marktplatz%2Fproduktiv%2FM42%2F853132550I%2F853132550I_640_BILD01_20250822.jpg)
%2CMatte(FFFFFF)&width=100&height=100&source=marktplatz%2Fproduktiv%2FM42%2F853132550I%2F853132550I_640_BILD01_20250822.jpg)
%2CMatte(FFFFFF)&width=100&height=100&source=marktplatz%2Fproduktiv%2FM42%2F853132550I%2F853132550I_980_BILD01_20250822.jpg)
%2CMatte(FFFFFF)&width=300&height=300&source=marktplatz%2Fproduktiv%2FM42%2F856083563I%2F856083563I_990_BILD01_20250822.jpg)
%2CMatte(FFFFFF)&width=100&height=100&source=marktplatz%2Fproduktiv%2FM42%2F856083563I%2F856083563I_990_BILD01_20250822.jpg)
%2CMatte(FFFFFF)&width=100&height=100&source=marktplatz%2Fproduktiv%2FM42%2F856083563I%2F856083563I_590_BILD01_20250822.jpg)
%2CMatte(FFFFFF)&width=100&height=100&source=marktplatz%2Fproduktiv%2FM42%2F856083563I%2F856083563I_390_BILD01_20250822.jpg)
%2CMatte(FFFFFF)&width=100&height=100&source=marktplatz%2Fproduktiv%2FM42%2F856083563I%2F856083563I_025_BILD01_20250822.jpg)
%2CMatte(FFFFFF)&width=300&height=300&source=marktplatz%2Fproduktiv%2FM42%2F953232813I%2F953232813I_628_BILD01_20260220.jpg)
%2CMatte(FFFFFF)&width=100&height=100&source=marktplatz%2Fproduktiv%2FM42%2F953232813I%2F953232813I_628_BILD01_20260220.jpg)
%2CMatte(FFFFFF)&width=100&height=100&source=marktplatz%2Fproduktiv%2FM42%2F953232813I%2F953232813I_032_BILD01_20260220.jpg)
%2CMatte(FFFFFF)&width=100&height=100&source=marktplatz%2Fproduktiv%2FM42%2F953232813I%2F953232813I_381_BILD01_20260220.jpg)
%2CMatte(FFFFFF)&width=300&height=300&source=marktplatz%2Fproduktiv%2FM42%2F553237567I%2F553237567I_663_BILD01_20240417.jpg)
%2CMatte(FFFFFF)&width=300&height=300&source=marktplatz%2Fproduktiv%2FM42%2F857973682I%2F857973682I_390_BILD01_20250910.jpg)
%2CMatte(FFFFFF)&width=100&height=100&source=marktplatz%2Fproduktiv%2FM42%2F857973682I%2F857973682I_390_BILD01_20250910.jpg)
%2CMatte(FFFFFF)&width=100&height=100&source=marktplatz%2Fproduktiv%2FM42%2F857973682I%2F857973682I_290_BILD01_20250910.jpg)
%2CMatte(FFFFFF)&width=100&height=100&source=marktplatz%2Fproduktiv%2FM42%2F857973682I%2F857973682I_990_BILD01_20250910.jpg)
%2CMatte(FFFFFF)&width=300&height=300&source=marktplatz%2Fproduktiv%2FM42%2F757970682IO%2F757970682IO_990_BILD01_20250326.jpg)
%2CMatte(FFFFFF)&width=100&height=100&source=marktplatz%2Fproduktiv%2FM42%2F757970682IO%2F757970682IO_990_BILD01_20250326.jpg)
%2CMatte(FFFFFF)&width=100&height=100&source=marktplatz%2Fproduktiv%2FM42%2F757970682IO%2F757970682IO_390_BILD01_20250326.jpg)
%2CMatte(FFFFFF)&width=300&height=300&source=marktplatz%2Fproduktiv%2FM42%2F758995544IO%2F758995544IO_990_BILD01_20250326.jpg)
%2CMatte(FFFFFF)&width=300&height=300&source=marktplatz%2Fproduktiv%2FM42%2F954864490I%2F954864490I_390_BILD01_20260217.jpg)
%2CMatte(FFFFFF)&width=100&height=100&source=marktplatz%2Fproduktiv%2FM42%2F954864490I%2F954864490I_390_BILD01_20260217.jpg)
%2CMatte(FFFFFF)&width=100&height=100&source=marktplatz%2Fproduktiv%2FM42%2F954864490I%2F954864490I_510_BILD01_20260217.jpg)
%2CMatte(FFFFFF)&width=100&height=100&source=marktplatz%2Fproduktiv%2FM42%2F954864490I%2F954864490I_633_BILD01_20260804.jpg)
%2CMatte(FFFFFF)&width=100&height=100&source=marktplatz%2Fproduktiv%2FM42%2F954864490I%2F954864490I_513_BILD01_20260804.jpg)
%2CMatte(FFFFFF)&width=300&height=300&source=marktplatz%2Fproduktiv%2FM42%2F954503522I%2F954503522I_276_BILD01_20260220.jpg)
%2CMatte(FFFFFF)&width=100&height=100&source=marktplatz%2Fproduktiv%2FM42%2F954503522I%2F954503522I_276_BILD01_20260220.jpg)
%2CMatte(FFFFFF)&width=100&height=100&source=marktplatz%2Fproduktiv%2FM42%2F954503522I%2F954503522I_032_BILD01_20260220.jpg)
%2CMatte(FFFFFF)&width=100&height=100&source=marktplatz%2Fproduktiv%2FM42%2F954503522I%2F954503522I_390_BILD01_20260220.jpg)
%2CMatte(FFFFFF)&width=100&height=100&source=marktplatz%2Fproduktiv%2FM42%2F954503522I%2F954503522I_628_BILD01_20260220.jpg)
%2CMatte(FFFFFF)&width=100&height=100&source=marktplatz%2Fproduktiv%2FM42%2F954503522I%2F954503522I_310_BILD01_20260220.jpg)
%2CMatte(FFFFFF)&width=100&height=100&source=marktplatz%2Fproduktiv%2FM42%2F954503522I%2F954503522I_633_BILD01_20260220.jpg)
%2CMatte(FFFFFF)&width=300&height=300&source=marktplatz%2Fproduktiv%2FM42%2F954778620I%2F954778620I_381_BILD01_20260217.jpg)
%2CMatte(FFFFFF)&width=100&height=100&source=marktplatz%2Fproduktiv%2FM42%2F954778620I%2F954778620I_381_BILD01_20260217.jpg)
%2CMatte(FFFFFF)&width=100&height=100&source=marktplatz%2Fproduktiv%2FM42%2F954778620I%2F954778620I_628_BILD01_20260217.jpg)
%2CMatte(FFFFFF)&width=100&height=100&source=marktplatz%2Fproduktiv%2FM42%2F954778620I%2F954778620I_032_BILD01_20260217.jpg)
%2CMatte(FFFFFF)&width=300&height=300&source=marktplatz%2Fproduktiv%2FM42%2F754641590IO%2F754641590IO_390_BILD01_20250326.jpg)
%2CMatte(FFFFFF)&width=300&height=300&source=marktplatz%2Fproduktiv%2FM42%2F853158557QK%2F853158557QK_290_BILD01_20260131.jpg)
%2CMatte(FFFFFF)&width=300&height=300&source=marktplatz%2Fproduktiv%2FM42%2F453002506I%2F453002506I_585_BILD01_20231005.jpg)
%2CMatte(FFFFFF)&width=100&height=100&source=marktplatz%2Fproduktiv%2FM42%2F453002506I%2F453002506I_585_BILD01_20231005.jpg)
%2CMatte(FFFFFF)&width=100&height=100&source=marktplatz%2Fproduktiv%2FM42%2F453002506I%2F453002506I_160_BILD01_20231005.jpg)
%2CMatte(FFFFFF)&width=300&height=300&source=marktplatz%2Fproduktiv%2FM42%2F856133530I%2F856133530I_690_BILD01_20250822.jpg)
%2CMatte(FFFFFF)&width=100&height=100&source=marktplatz%2Fproduktiv%2FM42%2F856133530I%2F856133530I_690_BILD01_20250822.jpg)
%2CMatte(FFFFFF)&width=100&height=100&source=marktplatz%2Fproduktiv%2FM42%2F856133530I%2F856133530I_990_BILD01_20260131.jpg)
%2CMatte(FFFFFF)&width=100&height=100&source=marktplatz%2Fproduktiv%2FM42%2F856133530I%2F856133530I_245_BILD01_20250822.jpg)
%2CMatte(FFFFFF)&width=300&height=300&source=marktplatz%2Fproduktiv%2FM42%2F853019520IX%2F853019520IX_990_BILD01_20251118.jpg)
%2CMatte(FFFFFF)&width=100&height=100&source=marktplatz%2Fproduktiv%2FM42%2F853019520IX%2F853019520IX_990_BILD01_20251118.jpg)
%2CMatte(FFFFFF)&width=100&height=100&source=marktplatz%2Fproduktiv%2FM42%2F853019520IX%2F853019520IX_390_BILD01_20250822.jpg)
%2CMatte(FFFFFF)&width=100&height=100&source=marktplatz%2Fproduktiv%2FM42%2F853019520IX%2F853019520IX_590_BILD01_20250822.jpg)
%2CMatte(FFFFFF)&width=300&height=300&source=marktplatz%2Fproduktiv%2FM42%2F853284557E%2F853284557E_990_BILD01_20250822.jpg)
%2CMatte(FFFFFF)&width=300&height=300&source=marktplatz%2Fproduktiv%2FM42%2F856264557E%2F856264557E_990_BILD01_20250822.jpg)
%2CMatte(FFFFFF)&width=100&height=100&source=marktplatz%2Fproduktiv%2FM42%2F856264557E%2F856264557E_990_BILD01_20250822.jpg)
%2CMatte(FFFFFF)&width=100&height=100&source=marktplatz%2Fproduktiv%2FM42%2F856264557E%2F856264557E_245_BILD01_20250822.jpg)
%2CMatte(FFFFFF)&width=300&height=300&source=marktplatz%2Fproduktiv%2FM42%2F953010532I%2F953010532I_633_BILD01_20260217.jpg)
%2CMatte(FFFFFF)&width=300&height=300&source=marktplatz%2Fproduktiv%2FM42%2F455958334I%2F455958334I_390_BILD01_20231005.jpg)
%2CMatte(FFFFFF)&width=100&height=100&source=marktplatz%2Fproduktiv%2FM42%2F455958334I%2F455958334I_390_BILD01_20231005.jpg)
%2CMatte(FFFFFF)&width=100&height=100&source=marktplatz%2Fproduktiv%2FM42%2F455958334I%2F455958334I_010_BILD01_20231005.jpg)
%2CMatte(FFFFFF)&width=300&height=300&source=marktplatz%2Fproduktiv%2FM42%2F954121859I%2F954121859I_990_BILD01_20260217.jpg)
%2CMatte(FFFFFF)&width=100&height=100&source=marktplatz%2Fproduktiv%2FM42%2F954121859I%2F954121859I_990_BILD01_20260217.jpg)
%2CMatte(FFFFFF)&width=100&height=100&source=marktplatz%2Fproduktiv%2FM42%2F954121859I%2F954121859I_390_BILD01_20260217.jpg)
%2CMatte(FFFFFF)&width=100&height=100&source=marktplatz%2Fproduktiv%2FM42%2F954121859I%2F954121859I_276_BILD01_20260217.jpg)
%2CMatte(FFFFFF)&width=300&height=300&source=marktplatz%2Fproduktiv%2FM42%2F957662655I%2F957662655I_810_BILD01_20260217.jpg)
%2CMatte(FFFFFF)&width=100&height=100&source=marktplatz%2Fproduktiv%2FM42%2F957662655I%2F957662655I_810_BILD01_20260217.jpg)
%2CMatte(FFFFFF)&width=100&height=100&source=marktplatz%2Fproduktiv%2FM42%2F957662655I%2F957662655I_817_BILD01_20260804.jpg)
%2CMatte(FFFFFF)&width=100&height=100&source=marktplatz%2Fproduktiv%2FM42%2F957662655I%2F957662655I_381_BILD01_20260217.jpg)
%2CMatte(FFFFFF)&width=300&height=300&source=marktplatz%2Fproduktiv%2FM42%2F857970682I%2F857970682I_998_BILD01_20250822.jpg)
%2CMatte(FFFFFF)&width=100&height=100&source=marktplatz%2Fproduktiv%2FM42%2F857970682I%2F857970682I_998_BILD01_20250822.jpg)
%2CMatte(FFFFFF)&width=100&height=100&source=marktplatz%2Fproduktiv%2FM42%2F857970682I%2F857970682I_290_BILD01_20250822.jpg)
%2CMatte(FFFFFF)&width=100&height=100&source=marktplatz%2Fproduktiv%2FM42%2F857970682I%2F857970682I_050_BILD01_20250822.jpg)
%2CMatte(FFFFFF)&width=100&height=100&source=marktplatz%2Fproduktiv%2FM42%2F857970682I%2F857970682I_571_BILD01_20250822.jpg)
%2CMatte(FFFFFF)&width=100&height=100&source=marktplatz%2Fproduktiv%2FM42%2F857970682I%2F857970682I_392_BILD01_20250822.jpg)
%2CMatte(FFFFFF)&width=100&height=100&source=marktplatz%2Fproduktiv%2FM42%2F857970682I%2F857970682I_348_BILD01_20250822.jpg)
%2CMatte(FFFFFF)&width=300&height=300&source=marktplatz%2Fproduktiv%2FM42%2F954050569I%2F954050569I_990_BILD01_20260217.jpg)
%2CMatte(FFFFFF)&width=100&height=100&source=marktplatz%2Fproduktiv%2FM42%2F954050569I%2F954050569I_990_BILD01_20260217.jpg)
%2CMatte(FFFFFF)&width=100&height=100&source=marktplatz%2Fproduktiv%2FM42%2F954050569I%2F954050569I_276_BILD01_20260217.jpg)
%2CMatte(FFFFFF)&width=100&height=100&source=marktplatz%2Fproduktiv%2FM42%2F954050569I%2F954050569I_381_BILD01_20260217.jpg)
%2CMatte(FFFFFF)&width=300&height=300&source=marktplatz%2Fproduktiv%2FM42%2F854836306I%2F854836306I_010_BILD01_20250822.jpg)
%2CMatte(FFFFFF)&width=100&height=100&source=marktplatz%2Fproduktiv%2FM42%2F854836306I%2F854836306I_010_BILD01_20250822.jpg)
%2CMatte(FFFFFF)&width=100&height=100&source=marktplatz%2Fproduktiv%2FM42%2F854836306I%2F854836306I_590_BILD01_20250822.jpg)
%2CMatte(FFFFFF)&width=100&height=100&source=marktplatz%2Fproduktiv%2FM42%2F854836306I%2F854836306I_348_BILD01_20250822.jpg)
%2CMatte(FFFFFF)&width=300&height=300&source=marktplatz%2Fproduktiv%2FM42%2F754809582I%2F754809582I_637_BILD01_20250326.jpg)
%2CMatte(FFFFFF)&width=100&height=100&source=marktplatz%2Fproduktiv%2FM42%2F754809582I%2F754809582I_637_BILD01_20250326.jpg)
%2CMatte(FFFFFF)&width=100&height=100&source=marktplatz%2Fproduktiv%2FM42%2F754809582I%2F754809582I_939_BILD01_20250326.jpg)
%2CMatte(FFFFFF)&width=300&height=300&source=marktplatz%2Fproduktiv%2FM42%2F854837336I%2F854837336I_010_BILD01_20250822.jpg)
%2CMatte(FFFFFF)&width=100&height=100&source=marktplatz%2Fproduktiv%2FM42%2F854837336I%2F854837336I_010_BILD01_20250822.jpg)
%2CMatte(FFFFFF)&width=100&height=100&source=marktplatz%2Fproduktiv%2FM42%2F854837336I%2F854837336I_313_BILD01_20250822.jpg)
%2CMatte(FFFFFF)&width=100&height=100&source=marktplatz%2Fproduktiv%2FM42%2F854837336I%2F854837336I_560_BILD01_20250822.jpg)
%2CMatte(FFFFFF)&width=100&height=100&source=marktplatz%2Fproduktiv%2FM42%2F854837336I%2F854837336I_770_BILD01_20250822.jpg)
%2CMatte(FFFFFF)&width=300&height=300&source=marktplatz%2Fproduktiv%2FM42%2F651070839IO%2F651070839IO_990_BILD01_20240930.jpg)
%2CMatte(FFFFFF)&width=300&height=300&source=marktplatz%2Fproduktiv%2FM42%2F958995544I%2F958995544I_390_BILD01_20260217.jpg)
%2CMatte(FFFFFF)&width=100&height=100&source=marktplatz%2Fproduktiv%2FM42%2F958995544I%2F958995544I_390_BILD01_20260217.jpg)
%2CMatte(FFFFFF)&width=100&height=100&source=marktplatz%2Fproduktiv%2FM42%2F958995544I%2F958995544I_276_BILD01_20260217.jpg)
%2CMatte(FFFFFF)&width=300&height=300&source=marktplatz%2Fproduktiv%2FM42%2F853299870QS%2F853299870QS_690_BILD01_20250822.jpg)
%2CMatte(FFFFFF)&width=300&height=300&source=marktplatz%2Fproduktiv%2FM42%2F954777627I%2F954777627I_990_BILD01_20260220.jpg)
%2CMatte(FFFFFF)&width=100&height=100&source=marktplatz%2Fproduktiv%2FM42%2F954777627I%2F954777627I_990_BILD01_20260220.jpg)
%2CMatte(FFFFFF)&width=100&height=100&source=marktplatz%2Fproduktiv%2FM42%2F954777627I%2F954777627I_022_BILD01_20260220.jpg)
%2CMatte(FFFFFF)&width=100&height=100&source=marktplatz%2Fproduktiv%2FM42%2F954777627I%2F954777627I_628_BILD01_20260220.jpg)
%2CMatte(FFFFFF)&width=100&height=100&source=marktplatz%2Fproduktiv%2FM42%2F954777627I%2F954777627I_381_BILD01_20260220.jpg)